Terminal Aerodrome Forecast
Issued by NWS

Home | Current Version | Previous Version | Graphics & Text | Print | Product List | Glossary On
Versions: 1 2 3 4 5 6 7 8 9 10 11 12 13 14 15 16 17 18 19 20
000
FTUS43 KBIS 191442 AAB
TAFDIK
TAF AMD
KDIK 191442Z 1915/2012 10003KT 1/4SM FZFG VV002
     FM191700 13009KT 1SM BR BKN006
     FM191900 13011KT P6SM FEW020 SCT200=

USA.gov is the U.S. government's official web portal to all federal, state and local government web resources and services.